createdAt,value
2023-04-24T00:01:56.293Z,100447.78
2023-04-24T00:04:46.130Z,100449.91
2023-04-24T00:07:37.012Z,100449.09
2023-04-24T00:10:26.312Z,100447.66
2023-04-24T00:13:15.531Z,100449.44
2023-04-24T00:16:06.386Z,100448.47
2023-04-24T00:18:55.698Z,100444.28
2023-04-24T00:21:45.025Z,100450.56
2023-04-24T00:24:36.031Z,100449.63
2023-04-24T00:27:25.661Z,100450.44
2023-04-24T00:30:15.399Z,100441.22
2023-04-24T00:33:05.002Z,100450.91
2023-04-24T00:35:54.200Z,100450.72
2023-04-24T00:38:43.537Z,100447.84
2023-04-24T00:41:34.176Z,100437.53
2023-04-24T00:44:23.716Z,100439.16
2023-04-24T00:47:14.123Z,100433.81
2023-04-24T00:50:07.129Z,100416.28
2023-04-24T00:52:57.388Z,100442.69
2023-04-24T00:55:47.149Z,100435.91
2023-04-24T00:58:37.945Z,100428.81
2023-04-24T01:01:27.342Z,100433.34
2023-04-24T01:04:19.420Z,100438.16
2023-04-24T01:07:11.743Z,100433.97
2023-04-24T01:10:01.142Z,100432.53
2023-04-24T01:12:50.445Z,100419.00
2023-04-24T01:15:41.197Z,100434.13
2023-04-24T01:18:31.080Z,100448.91
2023-04-24T01:21:22.977Z,100436.19
2023-04-24T01:24:15.173Z,100459.03
2023-04-24T01:27:04.544Z,100455.34
2023-04-24T01:29:54.659Z,100463.53
2023-04-24T01:32:46.013Z,100469.81
2023-04-24T01:35:35.592Z,100459.69
2023-04-24T01:38:24.860Z,100458.88
2023-04-24T01:41:15.532Z,100469.97
2023-04-24T01:44:05.508Z,100465.16
2023-04-24T01:46:55.263Z,100460.50
2023-04-24T01:49:44.836Z,100463.56
2023-04-24T01:52:37.189Z,100452.28
2023-04-24T01:55:26.630Z,100461.00
2023-04-24T01:58:17.431Z,100467.44
2023-04-24T02:01:08.595Z,100472.13
2023-04-24T02:03:57.860Z,100475.31
2023-04-24T02:06:47.242Z,100468.72
2023-04-24T02:09:36.594Z,100475.50
2023-04-24T02:12:25.930Z,100476.00
2023-04-24T02:15:16.533Z,100480.81
2023-04-24T02:18:05.986Z,100481.00
2023-04-24T02:20:55.558Z,100476.00
2023-04-24T02:23:44.759Z,100476.47
2023-04-24T02:26:35.817Z,100472.47
2023-04-24T02:29:25.006Z,100473.25
2023-04-24T02:32:16.875Z,100481.16
2023-04-24T02:35:07.503Z,100472.47
2023-04-24T02:37:56.846Z,100490.06
2023-04-24T02:40:46.098Z,100486.00
2023-04-24T02:43:35.623Z,100467.47
2023-04-24T02:46:25.027Z,100479.38
2023-04-24T02:49:15.801Z,100493.13
2023-04-24T02:52:05.070Z,100480.81
2023-04-24T02:54:55.966Z,100485.69
2023-04-24T02:57:45.476Z,100486.97
2023-04-24T03:00:35.120Z,100488.91
2023-04-24T03:03:25.302Z,100491.31
2023-04-24T03:06:16.660Z,100493.25
2023-04-24T03:09:06.367Z,100490.53
2023-04-24T03:11:56.685Z,100487.31
2023-04-24T03:14:47.870Z,100496.00
2023-04-24T03:17:38.143Z,100495.31
2023-04-24T03:20:27.493Z,100491.78
2023-04-24T03:23:20.786Z,100495.81
2023-04-24T03:26:10.610Z,100477.44
2023-04-24T03:29:05.680Z,100490.47
2023-04-24T03:31:55.016Z,100476.81
2023-04-24T03:34:44.430Z,100488.88
2023-04-24T03:37:36.886Z,100493.22
2023-04-24T03:41:00.030Z,100486.28
2023-04-24T03:44:15.648Z,100493.38
2023-04-24T03:47:05.597Z,100483.41
2023-04-24T03:49:56.854Z,100479.34
2023-04-24T03:52:46.337Z,100481.13
2023-04-24T03:55:45.224Z,100488.53
2023-04-24T03:58:36.373Z,100487.25
2023-04-24T04:01:25.728Z,100474.53
2023-04-24T04:04:23.146Z,100485.47
2023-04-24T04:07:14.064Z,100494.47
2023-04-24T04:10:03.566Z,100493.19
2023-04-24T04:12:52.770Z,100480.13
2023-04-24T04:15:43.633Z,100493.19
2023-04-24T04:18:33.244Z,100485.75
2023-04-24T04:21:23.619Z,100477.03
2023-04-24T04:24:18.537Z,100495.56
2023-04-24T04:27:09.993Z,100483.13
2023-04-24T04:30:10.860Z,100493.13
2023-04-24T04:33:12.282Z,100494.22
2023-04-24T04:36:03.526Z,100497.28
2023-04-24T04:38:55.786Z,100502.16
2023-04-24T04:42:24.755Z,100506.63
2023-04-24T04:45:14.335Z,100512.22
2023-04-24T04:48:24.085Z,100520.59
2023-04-24T04:51:14.698Z,100521.97
2023-04-24T04:54:04.136Z,100524.81
2023-04-24T04:56:53.595Z,100548.91
2023-04-24T04:59:43.306Z,100551.31
2023-04-24T05:02:39.094Z,100562.09
2023-04-24T05:05:30.047Z,100556.56
2023-04-24T05:08:27.074Z,100565.16
2023-04-24T05:11:17.266Z,100565.69
2023-04-24T05:14:06.726Z,100561.84
2023-04-24T05:17:01.407Z,100554.88
2023-04-24T05:19:50.795Z,100557.41
2023-04-24T05:22:41.751Z,100564.00
2023-04-24T05:25:33.310Z,100563.56
2023-04-24T05:28:29.452Z,100581.44
2023-04-24T05:31:27.805Z,100578.72
2023-04-24T05:34:17.846Z,100579.53
2023-04-24T05:37:10.956Z,100584.38
2023-04-24T05:40:01.764Z,100589.44
2023-04-24T05:42:51.040Z,100601.94
2023-04-24T05:45:40.773Z,100599.94
2023-04-24T05:48:29.970Z,100610.84
2023-04-24T05:51:19.236Z,100602.84
2023-04-24T05:54:08.814Z,100624.75
2023-04-24T05:56:59.812Z,100625.34
2023-04-24T06:00:00.209Z,100633.53
2023-04-24T06:02:50.179Z,100628.34
2023-04-24T06:05:39.877Z,100644.59
2023-04-24T06:08:29.632Z,100659.63
2023-04-24T06:11:19.385Z,100655.34
2023-04-24T06:14:10.549Z,100652.69
2023-04-24T06:17:00.058Z,100656.75
2023-04-24T06:19:56.823Z,100676.34
2023-04-24T06:22:47.952Z,100668.03
2023-04-24T06:25:37.391Z,100668.03
2023-04-24T06:28:27.248Z,100676.94
2023-04-24T06:31:17.921Z,100690.47
2023-04-24T06:34:07.306Z,100683.19
2023-04-24T06:36:57.169Z,100684.88
2023-04-24T06:39:46.580Z,100694.69
2023-04-24T06:42:36.086Z,100685.56
2023-04-24T06:45:27.006Z,100704.25
2023-04-24T06:48:17.877Z,100713.91
2023-04-24T06:51:07.321Z,100705.53
2023-04-24T06:53:57.103Z,100718.31
2023-04-24T06:56:47.758Z,100714.56
2023-04-24T06:59:39.470Z,100725.16
2023-04-24T07:02:29.119Z,100729.28
2023-04-24T07:05:21.178Z,100732.31
2023-04-24T07:08:12.527Z,100735.59
2023-04-24T07:11:02.270Z,100736.41
2023-04-24T07:13:51.667Z,100751.06
2023-04-24T07:16:41.346Z,100745.69
2023-04-24T07:19:30.793Z,100750.63
2023-04-24T07:22:21.967Z,100751.22
2023-04-24T07:25:11.921Z,100756.66
2023-04-24T07:28:01.483Z,100755.88
2023-04-24T07:30:50.759Z,100749.56
2023-04-24T07:33:40.299Z,100751.28
2023-04-24T07:36:29.614Z,100768.53
2023-04-24T07:39:22.455Z,100771.53
2023-04-24T07:42:12.015Z,100775.00
2023-04-24T07:45:01.603Z,100779.56
2023-04-24T07:47:52.560Z,100774.56
2023-04-24T07:50:41.847Z,100788.84
2023-04-24T07:53:31.074Z,100791.53
2023-04-24T07:56:21.719Z,100793.44
2023-04-24T07:59:11.399Z,100803.72
2023-04-24T08:02:02.398Z,100805.13
2023-04-24T08:04:52.153Z,100804.34
2023-04-24T08:07:43.761Z,100812.13
2023-04-24T08:10:33.292Z,100813.16
2023-04-24T08:13:24.457Z,100803.38
2023-04-24T08:16:13.998Z,100808.31
2023-04-24T08:19:03.422Z,100815.59
2023-04-24T08:21:52.748Z,100815.16
2023-04-24T08:24:41.994Z,100816.19
2023-04-24T08:27:31.275Z,100825.31
2023-04-24T08:30:22.030Z,100827.16
2023-04-24T08:33:11.368Z,100827.28
2023-04-24T08:36:01.833Z,100831.25
2023-04-24T08:38:51.462Z,100821.09
2023-04-24T08:41:44.045Z,100819.63
2023-04-24T08:44:34.716Z,100829.34
2023-04-24T08:47:26.672Z,100823.06
2023-04-24T08:50:16.399Z,100826.94
2023-04-24T08:53:06.274Z,100834.84
2023-04-24T08:55:58.182Z,100827.66
2023-04-24T08:58:47.779Z,100840.53
2023-04-24T09:01:40.891Z,100836.69
2023-04-24T09:07:21.811Z,100853.88
2023-04-24T09:10:11.487Z,100850.00
2023-04-24T09:13:03.663Z,100861.09
2023-04-24T09:15:53.405Z,100861.16
2023-04-24T09:18:42.781Z,100869.03
2023-04-24T09:21:37.074Z,100858.94
2023-04-24T09:24:26.743Z,100872.31
2023-04-24T09:27:17.691Z,100869.41
2023-04-24T09:30:09.362Z,100883.28
2023-04-24T09:33:14.745Z,100881.31
2023-04-24T09:36:05.015Z,100878.50
2023-04-24T09:39:00.467Z,100879.00
2023-04-24T09:41:51.772Z,100881.34
2023-04-24T09:44:41.727Z,100887.50
2023-04-24T09:47:38.951Z,100889.13
2023-04-24T09:50:28.142Z,100903.78
2023-04-24T09:53:17.454Z,100902.06
2023-04-24T09:56:11.446Z,100905.41
2023-04-24T09:59:08.324Z,100908.25
2023-04-24T10:01:59.853Z,100904.22
2023-04-24T10:04:57.958Z,100901.91
2023-04-24T10:07:49.576Z,100906.75
2023-04-24T10:10:42.855Z,100909.38
2023-04-24T10:13:34.585Z,100915.22
2023-04-24T10:16:24.766Z,100914.50
2023-04-24T10:19:14.262Z,100919.13
2023-04-24T10:22:05.996Z,100922.56
2023-04-24T10:24:56.487Z,100921.06
2023-04-24T10:27:47.528Z,100928.13
2023-04-24T10:30:38.440Z,100927.72
2023-04-24T10:33:29.352Z,100926.19
2023-04-24T10:36:20.164Z,100934.09
2023-04-24T10:39:14.115Z,100930.56
2023-04-24T10:42:03.492Z,100945.22
2023-04-24T10:44:53.168Z,100942.34
2023-04-24T10:47:45.386Z,100951.53
2023-04-24T10:50:47.035Z,100946.00
2023-04-24T10:53:38.000Z,100951.09
2023-04-24T10:56:28.295Z,100958.16
2023-04-24T10:59:27.525Z,100946.47
2023-04-24T11:02:18.218Z,100946.75
2023-04-24T11:05:12.241Z,100969.78
2023-04-24T11:08:17.289Z,100970.84
2023-04-24T11:11:12.580Z,100984.22
2023-04-24T11:14:10.200Z,100971.22
2023-04-24T11:17:00.859Z,100973.66
2023-04-24T11:19:54.665Z,100975.59
2023-04-24T11:22:46.813Z,100992.25
2023-04-24T11:25:37.808Z,100995.06
2023-04-24T11:28:27.788Z,100998.53
2023-04-24T11:31:40.736Z,101002.28
2023-04-24T11:34:30.170Z,101006.59
2023-04-24T11:37:19.870Z,101006.41
2023-04-24T11:40:13.351Z,101001.06
2023-04-24T11:43:03.267Z,101007.50
2023-04-24T11:45:52.917Z,101014.03
2023-04-24T11:48:49.505Z,101010.97
2023-04-24T11:51:52.185Z,101009.94
2023-04-24T11:54:51.276Z,101010.84
2023-04-24T11:57:45.462Z,101014.22
2023-04-24T12:00:36.759Z,101016.81
2023-04-24T12:03:26.379Z,101020.06
2023-04-24T12:06:16.041Z,101015.81
2023-04-24T12:09:17.355Z,101025.56
2023-04-24T12:12:11.265Z,101027.00
2023-04-24T12:15:08.985Z,101025.97
2023-04-24T12:17:59.044Z,101031.88
2023-04-24T12:20:48.358Z,101036.59
2023-04-24T12:23:38.355Z,101034.06
2023-04-24T12:26:30.153Z,101042.41
2023-04-24T12:29:22.830Z,101057.56
2023-04-24T12:32:20.293Z,101052.91
2023-04-24T12:35:10.766Z,101046.28
2023-04-24T12:38:09.111Z,101057.81
2023-04-24T12:41:06.421Z,101052.97
2023-04-24T12:43:56.767Z,101065.28
2023-04-24T12:46:46.638Z,101066.56
2023-04-24T12:49:37.458Z,101070.03
2023-04-24T12:52:27.773Z,101069.47
2023-04-24T12:55:17.602Z,101059.88
2023-04-24T12:58:06.874Z,101074.75
2023-04-24T13:00:56.273Z,101075.91
2023-04-24T13:03:46.472Z,101079.78
2023-04-24T13:06:37.496Z,101079.97
2023-04-24T13:09:26.683Z,101082.06
2023-04-24T13:12:16.002Z,101073.31
2023-04-24T13:15:06.328Z,101077.31
2023-04-24T13:17:56.415Z,101086.78
2023-04-24T13:20:46.950Z,101080.31
2023-04-24T13:23:37.659Z,101085.31
2023-04-24T13:26:27.171Z,101082.78
2023-04-24T13:29:16.338Z,101088.16
2023-04-24T13:32:06.698Z,101088.78
2023-04-24T13:34:56.077Z,101098.91
2023-04-24T13:37:45.342Z,101097.78
2023-04-24T13:40:36.577Z,101100.63
2023-04-24T13:43:25.805Z,101103.38
2023-04-24T13:46:15.234Z,101101.13
2023-04-24T13:49:05.798Z,101103.19
2023-04-24T13:51:56.357Z,101096.59
2023-04-24T13:54:45.788Z,101108.22
2023-04-24T13:57:36.695Z,101105.84
2023-04-24T14:00:26.286Z,101101.84
2023-04-24T14:03:15.717Z,101107.88
2023-04-24T14:06:05.301Z,101114.97
2023-04-24T14:08:54.945Z,101112.94
2023-04-24T14:11:44.461Z,101100.78
2023-04-24T14:14:35.309Z,101111.81
2023-04-24T14:17:24.722Z,101120.03
2023-04-24T14:20:15.255Z,101115.56
2023-04-24T14:23:05.085Z,101118.09
2023-04-24T14:25:54.504Z,101118.03
2023-04-24T14:28:43.880Z,101118.69
2023-04-24T14:31:34.924Z,101104.28
2023-04-24T14:34:24.189Z,101122.13
2023-04-24T14:37:13.733Z,101126.41
2023-04-24T14:40:15.758Z,101121.22
2023-04-24T14:43:10.120Z,101118.31
2023-04-24T14:45:59.392Z,101120.00
2023-04-24T14:48:50.168Z,101121.38
2023-04-24T14:51:39.665Z,101127.34
2023-04-24T14:54:30.310Z,101120.56
2023-04-24T14:57:19.695Z,101112.84
2023-04-24T15:00:11.237Z,101122.72
2023-04-24T15:03:01.168Z,101126.66
2023-04-24T15:05:52.925Z,101113.41
2023-04-24T15:08:43.123Z,101129.03
2023-04-24T15:11:32.519Z,101128.53
2023-04-24T15:14:21.911Z,101134.75
2023-04-24T15:17:11.748Z,101140.03
2023-04-24T15:20:02.002Z,101132.63
2023-04-24T15:22:53.044Z,101134.91
2023-04-24T15:25:42.628Z,101127.00
2023-04-24T15:28:32.020Z,101151.34
2023-04-24T15:31:21.530Z,101147.38
2023-04-24T15:34:10.909Z,101149.78
2023-04-24T15:37:00.197Z,101154.53
2023-04-24T15:39:51.843Z,101148.38
2023-04-24T15:42:41.221Z,101152.13
2023-04-24T15:45:31.300Z,101150.53
2023-04-24T15:48:21.561Z,101152.97
2023-04-24T15:51:10.990Z,101148.75
2023-04-24T15:54:00.794Z,101162.03
2023-04-24T15:56:52.844Z,101153.69
2023-04-24T15:59:42.115Z,101160.34
2023-04-24T16:02:31.594Z,101166.16
2023-04-24T16:05:22.926Z,101175.22
2023-04-24T16:08:14.250Z,101170.19
2023-04-24T16:11:03.688Z,101174.53
2023-04-24T16:13:54.403Z,101178.72
2023-04-24T16:16:43.816Z,101179.97
2023-04-24T16:19:34.713Z,101184.31
2023-04-24T16:22:24.101Z,101175.84
2023-04-24T16:25:13.586Z,101173.22
2023-04-24T16:28:03.275Z,101178.28
2023-04-24T16:30:54.073Z,101179.50
2023-04-24T16:33:43.645Z,101196.97
2023-04-24T16:36:33.037Z,101185.69
2023-04-24T16:39:22.926Z,101203.50
2023-04-24T16:42:13.340Z,101204.69
2023-04-24T16:45:03.103Z,101214.16
2023-04-24T16:47:54.606Z,101210.63
2023-04-24T16:50:43.936Z,101211.28
2023-04-24T16:53:33.178Z,101213.50
2023-04-24T16:56:22.609Z,101208.31
2023-04-24T16:59:11.968Z,101219.59
2023-04-24T17:02:01.271Z,101220.72
2023-04-24T17:04:52.225Z,101211.31
2023-04-24T17:07:41.831Z,101221.22
2023-04-24T17:10:31.144Z,101224.28
2023-04-24T17:13:20.521Z,101226.44
2023-04-24T17:16:09.889Z,101223.16
2023-04-24T17:18:59.330Z,101224.91
2023-04-24T17:21:49.964Z,101229.97
2023-04-24T17:24:39.484Z,101223.28
2023-04-24T17:27:29.248Z,101227.91
2023-04-24T17:30:18.771Z,101233.28
2023-04-24T17:33:08.052Z,101228.31
2023-04-24T17:35:58.145Z,101229.94
2023-04-24T17:38:49.117Z,101235.22
2023-04-24T17:41:38.717Z,101235.16
2023-04-24T17:44:28.050Z,101222.06
2023-04-24T17:47:17.274Z,101229.88
2023-04-24T17:50:07.666Z,101224.56
2023-04-24T17:52:57.011Z,101226.50
2023-04-24T17:55:47.837Z,101225.38
2023-04-24T17:58:37.327Z,101239.63
2023-04-24T18:01:28.104Z,101234.94
2023-04-24T18:04:18.633Z,101248.75
2023-04-24T18:07:07.939Z,101243.59
2023-04-24T18:09:57.327Z,101238.84
2023-04-24T18:12:49.120Z,101230.31
2023-04-24T18:15:42.127Z,101235.00
2023-04-24T18:18:31.374Z,101236.13
2023-04-24T18:21:21.021Z,101242.47
2023-04-24T18:24:10.898Z,101249.97
2023-04-24T18:27:00.272Z,101248.44
2023-04-24T18:29:50.943Z,101250.91
2023-04-24T18:32:40.672Z,101256.28
2023-04-24T18:35:29.989Z,101253.13
2023-04-24T18:38:19.390Z,101270.25
2023-04-24T18:41:08.774Z,101269.00
2023-04-24T18:43:59.417Z,101273.94
2023-04-24T18:46:50.207Z,101253.91
2023-04-24T18:49:39.792Z,101274.13
2023-04-24T18:52:29.181Z,101270.94
2023-04-24T18:55:18.489Z,101277.22
2023-04-24T18:58:08.197Z,101276.78
2023-04-24T19:00:57.627Z,101278.72
2023-04-24T19:03:48.647Z,101277.31
2023-04-24T19:06:38.178Z,101276.41
2023-04-24T19:09:27.570Z,101254.03
2023-04-24T19:12:17.816Z,101287.13
2023-04-24T19:15:12.026Z,101295.03
2023-04-24T19:18:01.362Z,101295.34
2023-04-24T19:20:52.571Z,101299.28
2023-04-24T19:23:43.931Z,101291.22
2023-04-24T19:26:33.124Z,101311.78
2023-04-24T19:29:22.436Z,101308.59
2023-04-24T19:32:11.719Z,101313.63
2023-04-24T19:35:01.130Z,101318.75
2023-04-24T19:37:51.848Z,101327.31
2023-04-24T19:40:41.200Z,101314.31
2023-04-24T19:43:30.443Z,101335.09
2023-04-24T19:46:19.837Z,101335.47
2023-04-24T19:49:09.282Z,101335.03
2023-04-24T19:51:58.560Z,101330.22
2023-04-24T19:54:51.263Z,101346.38
2023-04-24T19:57:40.859Z,101347.25
2023-04-24T20:00:30.148Z,101347.94
2023-04-24T20:03:32.039Z,101364.84
2023-04-24T20:06:22.557Z,101357.00
2023-04-24T20:09:11.821Z,101345.03
2023-04-24T20:12:02.955Z,101361.72
2023-04-24T20:14:52.489Z,101360.69
2023-04-24T20:17:41.944Z,101359.66
2023-04-24T20:20:31.361Z,101357.63
2023-04-24T20:23:20.598Z,101377.22
2023-04-24T20:26:11.346Z,101374.50
2023-04-24T20:29:02.044Z,101371.81
2023-04-24T20:31:51.674Z,101375.72
2023-04-24T20:34:41.058Z,101368.97
2023-04-24T20:37:30.430Z,101373.59
2023-04-24T20:40:19.806Z,101372.53
2023-04-24T20:43:09.142Z,101365.78
2023-04-24T20:45:59.969Z,101371.25
2023-04-24T20:48:49.460Z,101375.66
2023-04-24T20:51:39.017Z,101375.44
2023-04-24T20:54:28.640Z,101380.31
2023-04-24T20:57:17.958Z,101381.72
2023-04-24T21:00:09.106Z,101374.13
2023-04-24T21:02:59.947Z,101379.31
2023-04-24T21:05:49.589Z,101394.06
2023-04-24T21:08:38.902Z,101400.06
2023-04-24T21:11:28.068Z,101403.34
2023-04-24T21:14:17.322Z,101397.66
2023-04-24T21:17:06.617Z,101397.66
2023-04-24T21:19:57.598Z,101408.88
2023-04-24T21:22:46.894Z,101411.31
2023-04-24T21:25:37.040Z,101409.97
2023-04-24T21:28:27.008Z,101409.16
2023-04-24T21:31:16.691Z,101416.28
2023-04-24T21:34:05.998Z,101414.97
2023-04-24T21:36:56.570Z,101406.81
2023-04-24T21:39:46.559Z,101409.28
2023-04-24T21:42:36.066Z,101410.69
2023-04-24T21:45:25.665Z,101415.03
2023-04-24T21:48:15.114Z,101414.50
2023-04-24T21:51:04.462Z,101424.34
2023-04-24T21:53:55.267Z,101413.22
2023-04-24T21:56:45.742Z,101417.28
2023-04-24T21:59:36.215Z,101414.59
2023-04-24T22:02:27.119Z,101415.41
2023-04-24T22:05:18.496Z,101414.59
2023-04-24T22:08:11.734Z,101411.63
2023-04-24T22:11:02.746Z,101408.91
2023-04-24T22:13:52.729Z,101419.50
2023-04-24T22:16:42.290Z,101421.41
2023-04-24T22:19:32.274Z,101409.97
2023-04-24T22:22:21.950Z,101414.59
2023-04-24T22:25:11.711Z,101414.56
2023-04-24T22:28:02.430Z,101410.16
2023-04-24T22:30:51.852Z,101410.16
2023-04-24T22:33:41.130Z,101422.66
2023-04-24T22:36:31.753Z,101423.44
2023-04-24T22:39:21.838Z,101414.69
2023-04-24T22:42:11.362Z,101389.13
2023-04-24T22:45:02.151Z,101422.78
2023-04-24T22:47:51.735Z,101425.22
2023-04-24T22:50:41.005Z,101430.91
2023-04-24T22:53:30.239Z,101427.38
2023-04-24T22:56:19.851Z,101424.41
2023-04-24T22:59:09.147Z,101430.97
2023-04-24T23:02:01.103Z,101424.97
2023-04-24T23:04:50.482Z,101412.75
2023-04-24T23:07:39.989Z,101406.78
2023-04-24T23:10:30.138Z,101410.63
2023-04-24T23:13:20.216Z,101418.81
2023-04-24T23:16:10.049Z,101418.31
2023-04-24T23:19:00.752Z,101424.31
2023-04-24T23:21:50.650Z,101421.06
2023-04-24T23:24:39.853Z,101424.34
2023-04-24T23:27:29.238Z,101425.16
2023-04-24T23:30:18.679Z,101417.81
2023-04-24T23:33:08.002Z,101423.50
2023-04-24T23:35:59.334Z,101423.50
2023-04-24T23:38:50.511Z,101432.19
2023-04-24T23:41:40.066Z,101432.19
2023-04-24T23:44:29.872Z,101431.09
2023-04-24T23:47:19.394Z,101436.28
2023-04-24T23:50:09.441Z,101440.06
2023-04-24T23:53:01.235Z,101440.59
2023-04-24T23:55:50.520Z,101434.91
2023-04-24T23:58:39.808Z,101445.53
